createdAt,value
2022-09-28T00:04:51.248Z,6.72
2022-09-28T00:09:51.997Z,6.79
2022-09-28T00:14:53.682Z,6.78
2022-09-28T00:19:55.953Z,6.84
2022-09-28T00:24:56.680Z,6.92
2022-09-28T00:29:57.475Z,6.93
2022-09-28T00:34:58.285Z,6.99
2022-09-28T00:39:59.052Z,7.03
2022-09-28T00:44:59.892Z,6.95
2022-09-28T00:50:27.600Z,6.96
2022-09-28T00:55:39.074Z,7.00
2022-09-28T01:00:40.350Z,7.00
2022-09-28T01:05:42.799Z,7.03
2022-09-28T01:10:43.626Z,7.05
2022-09-28T01:16:03.699Z,7.10
2022-09-28T01:21:26.609Z,6.97
2022-09-28T01:26:59.882Z,7.05
2022-09-28T01:32:21.681Z,7.02
2022-09-28T01:37:33.218Z,7.15
2022-09-28T01:42:38.347Z,7.11
2022-09-28T01:47:40.618Z,7.08
2022-09-28T01:52:58.311Z,7.18
2022-09-28T01:58:16.955Z,7.24
2022-09-28T02:03:23.937Z,7.21
2022-09-28T02:08:37.120Z,7.28
2022-09-28T02:13:46.239Z,7.29
2022-09-28T02:18:47.466Z,7.25
2022-09-28T02:24:02.675Z,7.18
2022-09-28T02:29:04.450Z,7.15
2022-09-28T02:34:05.375Z,7.19
2022-09-28T02:39:13.242Z,7.29
2022-09-28T02:44:38.610Z,7.29
2022-09-28T02:53:49.313Z,7.37
2022-09-28T03:02:03.869Z,7.27
2022-09-28T03:07:22.725Z,6.96
2022-09-28T03:12:25.619Z,6.76
2022-09-28T03:17:26.469Z,6.68
2022-09-28T03:22:27.416Z,6.53
2022-09-28T03:27:28.158Z,6.45
2022-09-28T03:32:29.370Z,6.41
2022-09-28T03:37:30.279Z,6.37
2022-09-28T03:42:31.557Z,6.33
2022-09-28T03:47:32.419Z,6.19
2022-09-28T03:52:33.301Z,6.15
2022-09-28T03:57:34.076Z,6.12
2022-09-28T04:02:35.212Z,6.06
2022-09-28T04:07:36.675Z,6.04
2022-09-28T04:12:37.870Z,6.10
2022-09-28T04:17:40.395Z,5.97
2022-09-28T04:22:48.820Z,5.93
2022-09-28T04:28:07.775Z,5.91
2022-09-28T04:33:10.444Z,6.02
2022-09-28T04:38:11.183Z,5.91
2022-09-28T04:43:12.281Z,5.88
2022-09-28T04:48:13.133Z,5.86
2022-09-28T04:54:29.561Z,5.75
2022-09-28T04:59:30.848Z,5.63
2022-09-28T05:04:31.894Z,5.57
2022-09-28T05:09:45.290Z,5.49
2022-09-28T05:14:46.106Z,5.56
2022-09-28T05:19:46.989Z,5.41
2022-09-28T05:24:48.225Z,5.38
2022-09-28T05:29:49.351Z,5.39
2022-09-28T05:39:55.961Z,5.32
2022-09-28T05:44:59.923Z,5.68
2022-09-28T05:50:01.319Z,5.96
2022-09-28T05:55:03.224Z,5.99
2022-09-28T06:00:08.209Z,6.02
2022-09-28T06:05:13.742Z,6.16
2022-09-28T06:10:14.758Z,6.19
2022-09-28T06:15:17.096Z,6.30
2022-09-28T06:20:18.977Z,6.42
2022-09-28T06:25:42.623Z,6.30
2022-09-28T06:30:44.283Z,6.27
2022-09-28T06:35:48.962Z,6.20
2022-09-28T06:40:50.338Z,6.28
2022-09-28T06:45:53.038Z,6.37
2022-09-28T06:51:55.456Z,6.55
2022-09-28T06:57:08.299Z,6.79
2022-09-28T07:02:13.870Z,6.62
2022-09-28T07:07:48.079Z,6.63
2022-09-28T07:13:37.384Z,6.85
2022-09-28T07:18:47.500Z,6.90
2022-09-28T07:23:53.865Z,6.92
2022-09-28T07:29:37.353Z,6.98
2022-09-28T07:41:31.726Z,6.94
2022-09-28T07:46:33.998Z,7.23
2022-09-28T07:51:43.429Z,7.41
2022-09-28T07:58:37.478Z,7.63
2022-09-28T08:03:59.627Z,7.89
2022-09-28T08:09:01.042Z,7.85
2022-09-28T08:14:20.552Z,8.08
2022-09-28T08:20:51.685Z,8.15
2022-09-28T08:25:54.278Z,8.53
2022-09-28T08:30:59.157Z,8.49
2022-09-28T08:36:20.983Z,8.66
2022-09-28T08:42:39.114Z,8.74
2022-09-28T08:49:13.471Z,9.01
2022-09-28T08:55:04.927Z,9.04
2022-09-28T09:00:28.814Z,8.96
2022-09-28T09:05:59.430Z,8.80
2022-09-28T09:11:56.446Z,8.61
2022-09-28T09:17:25.328Z,9.37
2022-09-28T09:23:54.855Z,9.45
2022-09-28T09:29:20.984Z,9.17
2022-09-28T09:36:11.543Z,9.81
2022-09-28T09:46:40.040Z,9.65
2022-09-28T09:52:01.362Z,9.35
2022-09-28T09:57:13.745Z,8.99
2022-09-28T10:02:31.017Z,8.86
2022-09-28T10:08:29.537Z,8.77
2022-09-28T10:13:31.349Z,8.69
2022-09-28T10:18:34.982Z,8.53
2022-09-28T10:24:01.838Z,8.66
2022-09-28T10:30:46.751Z,8.79
2022-09-28T10:35:48.072Z,8.83
2022-09-28T10:40:57.695Z,8.96
2022-09-28T10:46:20.998Z,9.09
2022-09-28T10:51:46.443Z,9.00
2022-09-28T10:56:52.438Z,9.14
2022-09-28T11:02:54.314Z,9.14
2022-09-28T11:08:05.807Z,10.61
2022-09-28T11:13:12.032Z,11.24
2022-09-28T11:18:30.550Z,11.15
2022-09-28T11:23:33.535Z,11.02
2022-09-28T11:28:50.779Z,10.59
2022-09-28T11:34:06.325Z,10.30
2022-09-28T11:39:27.432Z,10.13
2022-09-28T11:50:39.136Z,10.07
2022-09-28T11:55:55.012Z,10.41
2022-09-28T12:01:08.046Z,10.50
2022-09-28T12:06:46.012Z,10.67
2022-09-28T12:11:57.928Z,10.90
2022-09-28T12:17:24.057Z,10.89
2022-09-28T12:22:32.385Z,10.84
2022-09-28T12:30:20.767Z,10.60
2022-09-28T12:38:38.499Z,10.77
2022-09-28T12:45:04.343Z,10.85
2022-09-28T12:51:50.779Z,10.88
2022-09-28T12:58:49.751Z,10.83
2022-09-28T13:04:13.308Z,10.90
2022-09-28T13:10:40.474Z,10.89
2022-09-28T13:16:05.085Z,11.18
2022-09-28T13:23:01.627Z,10.84
2022-09-28T13:28:04.811Z,10.79
2022-09-28T13:33:07.113Z,10.93
2022-09-28T13:39:27.415Z,11.02
2022-09-28T13:44:53.540Z,10.88
2022-09-28T13:51:49.012Z,10.70
2022-09-28T13:57:02.217Z,10.87
2022-09-28T14:02:31.088Z,11.15
2022-09-28T14:08:30.712Z,11.09
2022-09-28T14:16:42.929Z,10.90
2022-09-28T14:22:14.536Z,10.89
2022-09-28T14:27:45.343Z,11.02
2022-09-28T14:32:54.721Z,10.83
2022-09-28T14:38:18.574Z,10.67
2022-09-28T14:44:12.677Z,10.66
2022-09-28T14:50:00.887Z,10.66
2022-09-28T14:55:02.322Z,10.55
2022-09-28T15:00:08.360Z,10.40
2022-09-28T15:05:15.711Z,10.42
2022-09-28T15:10:31.993Z,10.32
2022-09-28T15:15:38.261Z,10.39
2022-09-28T15:20:41.257Z,10.38
2022-09-28T15:25:51.329Z,10.55
2022-09-28T15:30:59.023Z,10.70
2022-09-28T15:36:04.097Z,10.63
2022-09-28T15:41:06.804Z,10.59
2022-09-28T15:46:17.613Z,10.47
2022-09-28T15:51:21.301Z,10.44
2022-09-28T15:56:22.254Z,10.36
2022-09-28T16:01:36.263Z,10.31
2022-09-28T16:06:40.231Z,10.35
2022-09-28T16:11:41.133Z,10.20
2022-09-28T16:16:47.928Z,10.19
2022-09-28T16:21:52.129Z,10.09
2022-09-28T16:27:00.357Z,10.11
2022-09-28T16:33:54.743Z,9.97
2022-09-28T16:38:55.674Z,10.00
2022-09-28T16:44:01.459Z,10.08
2022-09-28T16:49:05.184Z,10.05
2022-09-28T16:54:36.853Z,9.95
2022-09-28T16:59:38.019Z,9.95
2022-09-28T17:04:39.064Z,9.94
2022-09-28T17:09:39.864Z,9.79
2022-09-28T17:14:40.956Z,9.68
2022-09-28T17:19:41.737Z,9.64
2022-09-28T17:24:45.127Z,9.60
2022-09-28T17:29:45.957Z,9.53
2022-09-28T17:34:55.977Z,9.41
2022-09-28T17:40:21.570Z,9.19
2022-09-28T17:45:26.319Z,9.07
2022-09-28T17:50:31.613Z,8.97
2022-09-28T17:55:35.609Z,8.88
2022-09-28T18:00:36.384Z,8.77
2022-09-28T18:05:37.279Z,8.73
2022-09-28T18:10:38.075Z,8.72
2022-09-28T18:15:39.087Z,8.61
2022-09-28T18:20:41.180Z,8.52
2022-09-28T18:25:43.784Z,8.41
2022-09-28T18:30:44.904Z,8.33
2022-09-28T18:35:53.453Z,8.35
2022-09-28T18:40:55.647Z,8.24
2022-09-28T18:45:56.449Z,8.09
2022-09-28T18:50:57.473Z,7.95
2022-09-28T18:56:08.483Z,7.97
2022-09-28T19:06:44.038Z,7.97
2022-09-28T19:11:45.479Z,7.77
2022-09-28T19:16:46.390Z,7.75
2022-09-28T19:21:47.242Z,7.79
2022-09-28T19:26:48.976Z,7.87
2022-09-28T19:31:51.061Z,7.87
2022-09-28T19:36:51.929Z,7.78
2022-09-28T19:41:53.476Z,7.77
2022-09-28T19:47:06.105Z,7.79
2022-09-28T19:52:15.451Z,7.70
2022-09-28T19:57:18.742Z,7.33
2022-09-28T20:02:20.458Z,7.30
2022-09-28T20:07:21.298Z,7.19
2022-09-28T20:12:22.420Z,7.16
2022-09-28T20:17:23.337Z,7.03
2022-09-28T20:22:24.086Z,6.99
2022-09-28T20:27:26.616Z,7.22
2022-09-28T20:32:31.313Z,7.07
2022-09-28T20:37:32.713Z,7.14
2022-09-28T20:42:33.463Z,7.08
2022-09-28T20:47:34.231Z,7.18
2022-09-28T20:52:34.970Z,7.19
2022-09-28T20:57:35.968Z,7.30
2022-09-28T21:02:36.826Z,7.37
2022-09-28T21:07:37.753Z,7.40
2022-09-28T21:12:39.072Z,7.41
2022-09-28T21:17:39.919Z,7.34
2022-09-28T21:22:40.693Z,7.26
2022-09-28T21:27:42.007Z,7.23
2022-09-28T21:32:42.733Z,7.03
2022-09-28T21:37:43.531Z,6.99
2022-09-28T21:42:44.307Z,6.53
2022-09-28T21:47:52.310Z,6.59
2022-09-28T21:52:54.671Z,6.56
2022-09-28T21:57:55.658Z,6.50
2022-09-28T22:02:56.467Z,6.32
2022-09-28T22:07:57.241Z,6.29
2022-09-28T22:12:57.984Z,6.10
2022-09-28T22:17:58.748Z,6.06
2022-09-28T22:22:59.589Z,5.97
2022-09-28T22:28:00.942Z,5.80
2022-09-28T22:33:01.870Z,5.59
2022-09-28T22:38:02.724Z,5.57
2022-09-28T22:43:03.507Z,5.39
2022-09-28T22:48:04.319Z,5.18
2022-09-28T22:53:05.646Z,5.39
2022-09-28T22:58:06.903Z,5.42
2022-09-28T23:03:08.169Z,5.32
2022-09-28T23:08:09.751Z,5.05
2022-09-28T23:13:10.491Z,4.91
2022-09-28T23:18:11.294Z,5.00
2022-09-28T23:23:12.497Z,5.15
2022-09-28T23:28:13.676Z,4.99
2022-09-28T23:33:16.585Z,5.05
2022-09-28T23:38:18.047Z,5.05
2022-09-28T23:43:18.913Z,5.04
2022-09-28T23:48:19.706Z,5.05
2022-09-28T23:53:20.499Z,4.92
2022-09-28T23:58:21.679Z,4.89
